Time;durP1;ratioP1;P1;durP2;ratioP2;P2;SDS_P1;SDS_P2;PMS_P1;PMS_P2;Temp;Humidity;BMP_temperature;BMP_pressure;BME280_temperature;BME280_humidity;BME280_pressure;Samples;Min_cycle;Max_cycle;Signal;HPM_P1;HPM_P2
2021/04/12 00:00:37;;;;;;;5.43;3.35;;;6.10;99.90;;;;;;5119408;28;20232;-72
2021/04/12 00:03:11;;;;;;;5.50;3.35;;;6.10;99.90;;;;;;5119503;28;20630;-72
2021/04/12 00:05:43;;;;;;;2.75;2.33;;;6.10;99.90;;;;;;5119189;28;20201;-72
2021/04/12 00:08:17;;;;;;;4.15;3.20;;;6.20;99.90;;;;;;5119328;28;20262;-72
2021/04/12 00:10:51;;;;;;;5.30;3.60;;;6.10;99.90;;;;;;5119615;28;20243;-72
2021/04/12 00:13:24;;;;;;;5.20;3.15;;;6.00;99.90;;;;;;5118843;28;20684;-72
2021/04/12 00:15:55;;;;;;;4.35;3.03;;;5.80;99.90;;;;;;5118802;28;20292;-72
2021/04/12 00:18:27;;;;;;;5.20;3.45;;;5.70;99.90;;;;;;5118839;28;20201;-72
2021/04/12 00:20:57;;;;;;;5.30;3.42;;;5.50;99.90;;;;;;5118329;28;20311;-73
2021/04/12 00:23:31;;;;;;;2.67;2.22;;;5.30;99.90;;;;;;5118921;28;20261;-72
2021/04/12 00:26:05;;;;;;;4.53;2.80;;;5.40;99.90;;;;;;5117463;28;20201;-73
2021/04/12 00:28:35;;;;;;;1.60;1.45;;;5.50;99.90;;;;;;5118078;28;20316;-72
2021/04/12 00:31:09;;;;;;;6.03;3.03;;;5.60;99.90;;;;;;5118245;28;20227;-73
2021/04/12 00:33:40;;;;;;;4.53;3.05;;;5.70;99.90;;;;;;5118160;28;20276;-73
2021/04/12 00:36:16;;;;;;;2.67;1.75;;;5.50;99.90;;;;;;5117854;28;20208;-73
2021/04/12 00:38:50;;;;;;;2.92;2.58;;;5.50;99.90;;;;;;5117259;28;20246;-72
2021/04/12 00:41:38;;;;;;;3.92;2.88;;;5.60;99.90;;;;;;5117270;28;20312;-72
2021/04/12 00:44:11;;;;;;;4.85;3.67;;;5.50;99.90;;;;;;5117142;28;20288;-73
2021/04/12 00:47:00;;;;;;;4.57;3.30;;;5.30;99.90;;;;;;5116590;28;20296;-72
2021/04/12 00:49:58;;;;;;;4.53;3.08;;;5.20;99.90;;;;;;5116613;28;20202;-72
2021/04/12 00:52:44;;;;;;;3.58;2.45;;;5.10;99.90;;;;;;5115912;28;20206;-72
2021/04/12 00:55:20;;;;;;;3.95;3.33;;;5.30;99.90;;;;;;5116554;28;20208;-72
2021/04/12 00:57:59;;;;;;;4.88;3.38;;;5.30;99.90;;;;;;5116500;28;20289;-73
2021/04/12 01:00:29;;;;;;;3.50;2.63;;;5.40;99.90;;;;;;5116393;28;20304;-73
2021/04/12 01:03:03;;;;;;;4.43;3.35;;;5.50;99.90;;;;;;5116517;28;20243;-73
2021/04/12 01:05:42;;;;;;;4.15;3.10;;;5.60;99.90;;;;;;5116610;28;20346;-72
2021/04/12 01:08:26;;;;;;;5.22;3.30;;;5.50;99.90;;;;;;5116248;28;20227;-72
2021/04/12 01:11:26;;;;;;;4.15;3.15;;;5.60;99.90;;;;;;5117365;28;20333;-72
2021/04/12 01:14:23;;;;;;;4.18;2.85;;;5.60;99.90;;;;;;5093781;28;20257;-73
2021/04/12 01:17:05;;;;;;;4.40;2.90;;;5.70;99.90;;;;;;5112358;27;20703;-72
2021/04/12 01:20:10;;;;;;;4.88;3.70;;;5.70;99.90;;;;;;5116757;28;20745;-72
2021/04/12 01:23:06;;;;;;;5.32;3.70;;;5.70;99.90;;;;;;5117275;28;20207;-72
2021/04/12 01:26:05;;;;;;;3.65;2.85;;;5.60;99.90;;;;;;5107455;28;20288;-72
2021/04/12 01:29:33;;;;;;;1.15;0.60;;;5.50;99.90;;;;;;5116341;28;20312;-72
2021/04/12 01:32:20;;;;;;;4.53;3.50;;;5.40;99.90;;;;;;5115826;28;20269;-72
2021/04/12 01:35:38;;;;;;;4.95;3.20;;;5.40;99.90;;;;;;5115679;28;20212;-73
2021/04/12 01:38:26;;;;;;;4.78;3.38;;;5.20;99.90;;;;;;5052731;28;20746;-72
2021/04/12 01:41:13;;;;;;;4.32;2.85;;;5.10;99.90;;;;;;5044299;28;20238;-72
2021/04/12 01:44:06;;;;;;;5.95;3.20;;;5.10;99.90;;;;;;5097744;28;20201;-73
2021/04/12 01:46:41;;;;;;;4.45;3.60;;;5.10;99.90;;;;;;5115473;28;20202;-72
2021/04/12 01:49:15;;;;;;;6.00;4.28;;;5.20;99.90;;;;;;5114969;28;20316;-72
2021/04/12 01:52:06;;;;;;;5.18;3.72;;;5.10;99.90;;;;;;5115260;28;20273;-72
2021/04/12 01:54:49;;;;;;;5.65;3.58;;;4.90;99.90;;;;;;5114766;28;20207;-73
2021/04/12 01:57:40;;;;;;;5.75;3.60;;;4.90;99.90;;;;;;5114700;28;20650;-72
2021/04/12 02:00:47;;;;;;;6.97;3.35;;;5.00;99.90;;;;;;5115015;28;20327;-73
2021/04/12 02:03:31;;;;;;;5.13;3.85;;;5.10;99.90;;;;;;5092077;28;20364;-72
2021/04/12 02:06:28;;;;;;;4.30;3.40;;;4.90;99.90;;;;;;5114914;28;20668;-72
2021/04/12 02:08:58;;;;;;;7.00;4.55;;;4.90;99.90;;;;;;5113567;28;20274;-72
2021/04/12 02:11:46;;;;;;;9.25;4.00;;;4.90;99.90;;;;;;5114821;28;20358;-72
2021/04/12 02:14:24;;;;;;;5.15;3.63;;;4.90;99.90;;;;;;5115007;27;20289;-72
2021/04/12 02:16:59;;;;;;;4.70;3.70;;;5.00;99.90;;;;;;5114207;28;20205;-72
2021/04/12 02:19:44;;;;;;;6.53;4.10;;;4.80;99.90;;;;;;5114615;28;20660;-72
2021/04/12 02:22:36;;;;;;;6.78;4.05;;;4.70;99.90;;;;;;5114654;28;20273;-72
2021/04/12 02:25:10;;;;;;;5.18;3.13;;;4.80;99.90;;;;;;5101819;28;20284;-72
2021/04/12 02:27:48;;;;;;;3.58;2.55;;;4.90;99.90;;;;;;5114379;28;20224;-72
2021/04/12 02:30:22;;;;;;;6.00;3.60;;;5.00;99.90;;;;;;5115330;28;20231;-72
2021/04/12 02:33:19;;;;;;;6.60;3.85;;;5.00;99.90;;;;;;5114267;28;20253;-72
2021/04/12 02:35:57;;;;;;;7.07;3.42;;;4.60;99.90;;;;;;5102038;28;20205;-72
2021/04/12 02:38:34;;;;;;;7.13;4.38;;;4.60;99.90;;;;;;5114712;28;20620;-72
2021/04/12 02:41:30;;;;;;;4.07;2.70;;;4.40;99.90;;;;;;5114643;28;20222;-72
2021/04/12 02:44:09;;;;;;;5.80;3.25;;;4.50;99.90;;;;;;5109112;28;20296;-72
2021/04/12 02:47:06;;;;;;;5.85;4.05;;;4.50;99.90;;;;;;5113798;28;20771;-72
2021/04/12 02:49:40;;;;;;;6.15;3.67;;;4.30;99.90;;;;;;5114867;28;20261;-72
2021/04/12 02:52:20;;;;;;;5.65;4.20;;;4.40;99.90;;;;;;5115558;28;20272;-72
2021/04/12 02:55:18;;;;;;;7.78;4.43;;;4.50;99.90;;;;;;5115000;28;20205;-72
2021/04/12 02:58:24;;;;;;;5.07;3.50;;;4.70;99.90;;;;;;5115001;28;20205;-72
2021/04/12 03:01:09;;;;;;;8.93;4.88;;;4.90;99.90;;;;;;5112391;28;20236;-72
2021/04/12 03:03:59;;;;;;;6.18;4.18;;;4.80;99.90;;;;;;5114993;28;20617;-72
2021/04/12 03:06:51;;;;;;;9.52;4.78;;;4.70;99.90;;;;;;5115020;28;20207;-72
2021/04/12 03:09:45;;;;;;;8.32;5.13;;;4.80;99.90;;;;;;5115270;28;20316;-72
2021/04/12 03:12:40;;;;;;;7.22;5.00;;;4.90;99.90;;;;;;5114946;28;20186;-72
2021/04/12 03:15:32;;;;;;;6.55;3.92;;;5.00;99.90;;;;;;5114679;28;20635;-72
2021/04/12 03:18:37;;;;;;;4.35;3.05;;;5.00;99.90;;;;;;5114680;28;20640;-72
2021/04/12 03:21:40;;;;;;;3.38;3.08;;;4.90;99.90;;;;;;5109377;28;20231;-72
2021/04/12 03:24:16;;;;;;;8.50;4.18;;;4.80;99.90;;;;;;5088785;28;20201;-72
2021/04/12 03:27:14;;;;;;;5.15;3.63;;;4.50;99.90;;;;;;5114759;28;20232;-72
2021/04/12 03:29:53;;;;;;;6.43;3.80;;;4.60;99.90;;;;;;5114604;28;20227;-72
2021/04/12 03:32:56;;;;;;;7.70;3.70;;;4.50;99.90;;;;;;5114537;28;20246;-72
2021/04/12 03:35:31;;;;;;;5.78;4.00;;;4.50;99.90;;;;;;5114167;28;20292;-72
2021/04/12 03:38:33;;;;;;;6.95;4.25;;;4.60;99.90;;;;;;5114941;28;20201;-72
2021/04/12 03:41:37;;;;;;;9.45;4.50;;;4.50;99.90;;;;;;5115093;28;20221;-72
2021/04/12 03:44:16;;;;;;;8.55;4.10;;;4.60;99.90;;;;;;5112728;28;20233;-72
2021/04/12 03:46:55;;;;;;;10.50;4.00;;;4.70;99.90;;;;;;5115102;28;20289;-72
2021/04/12 03:49:38;;;;;;;9.00;4.78;;;4.80;99.90;;;;;;5118837;28;20235;-72
2021/04/12 03:52:23;;;;;;;7.13;4.57;;;4.90;99.90;;;;;;5119359;28;20288;-72
2021/04/12 03:55:07;;;;;;;4.57;3.80;;;4.80;99.90;;;;;;5119250;28;20209;-72
2021/04/12 03:57:56;;;;;;;7.47;4.90;;;4.60;99.90;;;;;;5118753;28;20296;-72
2021/04/12 04:00:46;;;;;;;5.18;3.97;;;4.50;99.90;;;;;;5119125;27;20625;-72
2021/04/12 04:03:39;;;;;;;10.77;4.63;;;4.50;99.90;;;;;;5118282;28;20259;-72
2021/04/12 04:06:45;;;;;;;5.85;4.00;;;4.50;99.90;;;;;;5118450;28;20695;-72
2021/04/12 04:09:41;;;;;;;4.72;3.20;;;4.60;99.90;;;;;;5118186;28;20225;-72
2021/04/12 04:12:32;;;;;;;7.85;4.72;;;4.60;99.90;;;;;;5118309;28;20274;-72
2021/04/12 04:15:15;;;;;;;7.47;4.18;;;4.40;99.90;;;;;;5118483;28;20289;-72
2021/04/12 04:18:02;;;;;;;9.02;4.80;;;4.60;99.90;;;;;;5118515;28;20238;-72
2021/04/12 04:21:01;;;;;;;8.00;4.65;;;4.70;99.90;;;;;;5118313;28;20308;-73
2021/04/12 04:23:43;;;;;;;6.85;4.63;;;4.70;99.90;;;;;;5118711;28;20197;-72
2021/04/12 04:26:39;;;;;;;7.78;4.72;;;4.60;99.90;;;;;;5118084;28;20204;-71
2021/04/12 04:29:24;;;;;;;6.57;4.20;;;4.70;99.90;;;;;;5118255;28;20253;-73
2021/04/12 04:32:14;;;;;;;9.82;5.70;;;4.80;99.90;;;;;;5118148;28;20672;-73
2021/04/12 04:35:08;;;;;;;9.45;4.78;;;4.80;99.90;;;;;;5118756;28;20589;-73
2021/04/12 04:38:04;;;;;;;7.25;4.50;;;4.80;99.90;;;;;;5117964;28;20641;-72
2021/04/12 04:40:46;;;;;;;7.40;5.25;;;4.80;99.90;;;;;;5118135;28;20589;-72
2021/04/12 04:43:40;;;;;;;9.57;5.68;;;4.70;99.90;;;;;;5117770;28;20205;-73
2021/04/12 04:46:35;;;;;;;8.68;5.10;;;4.70;99.90;;;;;;5117652;28;20201;-71
2021/04/12 04:49:38;;;;;;;6.93;4.38;;;4.60;99.90;;;;;;5112578;28;20322;-72
2021/04/12 04:52:34;;;;;;;9.13;4.80;;;4.60;99.90;;;;;;5118068;28;20185;-73
2021/04/12 04:55:20;;;;;;;10.20;5.63;;;4.60;99.90;;;;;;5117887;28;20213;-72
2021/04/12 04:58:13;;;;;;;5.38;4.15;;;4.80;99.90;;;;;;5117799;28;20197;-73
2021/04/12 05:01:15;;;;;;;9.70;4.45;;;4.80;99.90;;;;;;5116500;28;20243;-72
2021/04/12 05:04:20;;;;;;;15.90;12.25;;;4.90;99.90;;;;;;5115936;28;20203;-72
2021/04/12 05:07:44;;;;;;;6.55;4.13;;;4.80;99.90;;;;;;5115914;28;20362;-72
2021/04/12 05:10:43;;;;;;;6.70;4.00;;;4.70;99.90;;;;;;5054215;28;20229;-72
2021/04/12 05:13:17;;;;;;;7.00;4.80;;;4.60;99.90;;;;;;5054316;28;20203;-72
2021/04/12 05:16:30;;;;;;;6.85;4.35;;;4.60;99.90;;;;;;5100292;28;20292;-72
2021/04/12 05:19:19;;;;;;;5.70;4.20;;;4.50;99.90;;;;;;5103053;28;20670;-73
2021/04/12 05:21:56;;;;;;;7.47;4.43;;;4.50;99.90;;;;;;5117432;28;20226;-72
2021/04/12 05:24:43;;;;;;;7.20;4.13;;;4.20;99.90;;;;;;5116289;28;20205;-73
2021/04/12 05:27:35;;;;;;;6.90;4.35;;;4.20;99.90;;;;;;5116488;28;20749;-72
2021/04/12 05:30:30;;;;;;;7.75;4.18;;;4.20;99.90;;;;;;5111333;28;20688;-73
2021/04/12 05:33:08;;;;;;;9.57;5.50;;;4.30;99.90;;;;;;5117321;28;20197;-73
2021/04/12 05:35:52;;;;;;;9.80;5.72;;;4.20;99.90;;;;;;5117977;28;20296;-72
2021/04/12 05:38:48;;;;;;;8.98;5.50;;;4.40;99.90;;;;;;5117324;28;20198;-72
2021/04/12 05:41:37;;;;;;;8.52;5.97;;;4.40;99.90;;;;;;5116575;28;20229;-73
2021/04/12 05:44:13;;;;;;;6.55;5.50;;;4.20;99.90;;;;;;5116955;28;20292;-72
2021/04/12 05:47:15;;;;;;;10.05;6.30;;;4.30;99.90;;;;;;5117511;28;20256;-72
2021/04/12 05:50:04;;;;;;;11.95;7.03;;;4.40;99.90;;;;;;5117085;28;20267;-72
2021/04/12 05:52:42;;;;;;;10.48;5.70;;;4.50;99.90;;;;;;5116488;28;20186;-72
2021/04/12 05:55:36;;;;;;;9.70;5.70;;;4.40;99.90;;;;;;5116206;28;20219;-73
2021/04/12 05:58:29;;;;;;;10.82;6.32;;;4.40;99.90;;;;;;5115894;28;20201;-73
2021/04/12 06:01:09;;;;;;;10.93;6.45;;;4.20;99.90;;;;;;5116180;28;20246;-73
2021/04/12 06:03:47;;;;;;;12.43;6.35;;;4.30;99.90;;;;;;5116905;28;20300;-73
2021/04/12 06:06:38;;;;;;;9.25;5.45;;;4.40;99.90;;;;;;5115769;28;20584;-72
2021/04/12 06:09:36;;;;;;;11.60;6.97;;;4.60;99.90;;;;;;5115819;28;20225;-72
2021/04/12 06:12:29;;;;;;;10.68;6.85;;;4.70;99.90;;;;;;5115598;28;20620;-73
2021/04/12 06:15:41;;;;;;;12.52;6.30;;;4.80;99.90;;;;;;5115846;28;20296;-73
2021/04/12 06:18:53;;;;;;;13.75;6.70;;;4.80;99.90;;;;;;5116025;28;20204;-73
2021/04/12 06:21:31;;;;;;;10.43;6.13;;;4.90;99.90;;;;;;5115960;28;20231;-73
2021/04/12 06:24:22;;;;;;;10.90;6.88;;;4.90;99.90;;;;;;5115854;28;20196;-73
2021/04/12 06:27:22;;;;;;;10.10;6.95;;;4.90;99.90;;;;;;5116167;28;20201;-72
2021/04/12 06:30:03;;;;;;;12.65;7.72;;;5.00;99.90;;;;;;5113105;28;20229;-73
2021/04/12 06:33:02;;;;;;;10.27;6.30;;;5.10;99.90;;;;;;5115651;28;20345;-73
2021/04/12 06:35:59;;;;;;;13.02;6.95;;;5.20;99.90;;;;;;5102301;28;20250;-72
2021/04/12 06:39:01;;;;;;;10.45;7.07;;;5.30;99.90;;;;;;5115769;28;20193;-73
2021/04/12 06:42:11;;;;;;;10.32;6.60;;;5.40;99.90;;;;;;5115170;28;20311;-73
2021/04/12 06:45:00;;;;;;;9.32;6.05;;;5.30;99.90;;;;;;5115215;28;20236;-73
2021/04/12 06:48:09;;;;;;;8.85;5.40;;;5.40;99.90;;;;;;5115499;28;20338;-72
2021/04/12 06:51:09;;;;;;;11.90;7.45;;;5.50;99.90;;;;;;5117247;28;20257;-73
2021/04/12 06:54:13;;;;;;;10.55;7.30;;;5.40;99.90;;;;;;5106414;28;20212;-72
2021/04/12 06:57:40;;;;;;;10.57;7.05;;;5.40;99.90;;;;;;5115752;28;20252;-72
2021/04/12 07:00:39;;;;;;;8.73;4.70;;;5.40;99.90;;;;;;5116854;28;20718;-72
2021/04/12 07:03:54;;;;;;;12.55;7.40;;;5.40;99.90;;;;;;5110984;28;20227;-73
2021/04/12 07:06:43;;;;;;;9.80;5.95;;;5.20;99.90;;;;;;5116115;28;20208;-72
2021/04/12 07:09:40;;;;;;;13.18;7.80;;;5.10;99.90;;;;;;5116073;28;20235;-72
2021/04/12 07:12:44;;;;;;;8.43;5.72;;;5.10;99.90;;;;;;5117050;28;20281;-72
2021/04/12 07:15:43;;;;;;;7.53;5.10;;;5.20;99.90;;;;;;5115763;28;20209;-73
2021/04/12 07:18:52;;;;;;;13.38;6.88;;;5.30;99.90;;;;;;5116933;28;20678;-73
2021/04/12 07:21:57;;;;;;;9.50;6.38;;;5.30;99.90;;;;;;5116766;28;20350;-73
2021/04/12 07:24:50;;;;;;;10.25;5.97;;;5.40;99.90;;;;;;5121305;28;20205;-72
2021/04/12 07:27:39;;;;;;;8.68;5.88;;;5.40;99.90;;;;;;5119806;28;20550;-72
2021/04/12 07:30:36;;;;;;;13.35;7.40;;;5.50;99.90;;;;;;5120321;27;20223;-73
2021/04/12 07:33:37;;;;;;;12.48;7.22;;;5.50;99.90;;;;;;5120370;28;20288;-72
2021/04/12 07:36:37;;;;;;;9.55;6.95;;;5.60;99.90;;;;;;5119359;28;20266;-72
2021/04/12 07:39:39;;;;;;;7.03;4.35;;;5.60;99.90;;;;;;5094727;27;20227;-73
2021/04/12 07:42:30;;;;;;;12.48;7.55;;;5.40;99.90;;;;;;5118757;28;20272;-73
2021/04/12 07:45:45;;;;;;;14.55;7.30;;;5.40;99.90;;;;;;5120366;28;20334;-72
2021/04/12 07:48:50;;;;;;;13.15;7.47;;;5.40;99.90;;;;;;5057278;28;20313;-72
2021/04/12 07:51:36;;;;;;;13.70;8.20;;;5.40;99.90;;;;;;5107416;27;20600;-72
2021/04/12 07:54:46;;;;;;;14.48;7.22;;;5.50;99.90;;;;;;5120515;28;20244;-72
2021/04/12 07:57:56;;;;;;;12.98;6.32;;;5.50;99.90;;;;;;5119815;28;20197;-72
2021/04/12 08:00:58;;;;;;;10.30;6.55;;;5.60;99.90;;;;;;5119289;28;20221;-72
2021/04/12 08:04:13;;;;;;;13.70;8.00;;;5.50;99.90;;;;;;5118207;28;20283;-72
2021/04/12 08:07:43;;;;;;;14.98;8.40;;;5.60;99.90;;;;;;5119255;27;20219;-72
2021/04/12 08:10:48;;;;;;;10.88;7.03;;;5.50;99.90;;;;;;5118259;28;20304;-72
2021/04/12 08:13:34;;;;;;;14.05;9.18;;;5.60;99.90;;;;;;5119431;28;20240;-72
2021/04/12 08:16:58;;;;;;;13.10;7.95;;;5.60;99.90;;;;;;5119459;28;20572;-72
2021/04/12 08:19:41;;;;;;;15.50;9.25;;;5.70;99.90;;;;;;5117764;28;20193;-72
2021/04/12 08:22:42;;;;;;;14.52;8.63;;;5.70;99.90;;;;;;5116699;28;20575;-72
2021/04/12 08:25:36;;;;;;;15.15;9.05;;;5.60;99.90;;;;;;5090042;28;20201;-72
2021/04/12 08:28:36;;;;;;;14.15;7.75;;;5.70;99.90;;;;;;5116382;28;20228;-72
2021/04/12 08:31:47;;;;;;;15.75;9.75;;;6.00;99.90;;;;;;5116242;28;20791;-72
2021/04/12 08:35:01;;;;;;;16.20;9.32;;;6.20;99.90;;;;;;5116467;28;20578;-72
2021/04/12 08:38:12;;;;;;;12.18;7.80;;;6.20;99.90;;;;;;5099372;28;20284;-72
2021/04/12 08:41:15;;;;;;;13.68;8.60;;;6.20;99.90;;;;;;5081023;28;20217;-72
2021/04/12 08:44:12;;;;;;;15.43;9.15;;;6.20;99.90;;;;;;5117468;28;20287;-72
2021/04/12 08:47:04;;;;;;;15.43;9.15;;;5.90;99.90;;;;;;5116519;28;20292;-71
2021/04/12 08:50:13;;;;;;;9.73;6.82;;;6.00;99.90;;;;;;5116996;28;20308;-72
2021/04/12 08:53:16;;;;;;;13.98;8.10;;;6.10;99.90;;;;;;5116455;28;20315;-72
2021/04/12 08:56:09;;;;;;;13.85;9.18;;;6.10;99.90;;;;;;5116579;28;20296;-71
2021/04/12 08:59:04;;;;;;;17.00;9.82;;;6.00;99.90;;;;;;5116848;28;20202;-72
2021/04/12 09:02:09;;;;;;;15.45;9.43;;;5.80;99.90;;;;;;5113952;27;20308;-72
2021/04/12 09:05:15;;;;;;;12.57;7.50;;;5.80;99.90;;;;;;5093877;28;20237;-72
2021/04/12 09:08:18;;;;;;;10.70;6.57;;;6.00;99.90;;;;;;5116395;28;20304;-71
2021/04/12 09:11:26;;;;;;;14.50;8.02;;;6.10;99.90;;;;;;5116648;28;20221;-72
2021/04/12 09:14:20;;;;;;;12.93;7.65;;;6.30;99.90;;;;;;5080011;28;20201;-72
2021/04/12 09:17:23;;;;;;;9.68;5.38;;;6.40;99.90;;;;;;5116397;27;20204;-71
2021/04/12 09:20:02;;;;;;;11.75;7.35;;;6.30;99.90;;;;;;5116418;28;20202;-72
2021/04/12 09:22:55;;;;;;;12.98;8.13;;;6.40;99.90;;;;;;5116344;28;20193;-72
2021/04/12 09:25:58;;;;;;;14.80;8.85;;;6.30;99.90;;;;;;5116336;28;20708;-71
2021/04/12 09:28:37;;;;;;;14.40;8.95;;;6.30;99.90;;;;;;5116394;28;20635;-72
2021/04/12 09:31:28;;;;;;;16.20;8.63;;;6.20;99.90;;;;;;5116738;28;20286;-72
2021/04/12 09:34:25;;;;;;;14.60;8.60;;;6.10;99.90;;;;;;5116623;28;20288;-72
2021/04/12 09:37:36;;;;;;;11.10;7.43;;;6.10;99.90;;;;;;5085045;28;20255;-72
2021/04/12 09:40:56;;;;;;;12.57;7.47;;;6.20;99.90;;;;;;5066299;28;20223;-72
2021/04/12 09:44:13;;;;;;;12.65;7.63;;;6.70;99.90;;;;;;5115498;28;20280;-72
2021/04/12 09:47:08;;;;;;;9.70;6.75;;;7.20;99.90;;;;;;5051051;28;20278;-71
2021/04/12 09:50:10;;;;;;;13.88;9.02;;;7.40;99.90;;;;;;5051997;28;20237;-72
2021/04/12 09:52:51;;;;;;;9.32;6.90;;;7.50;99.90;;;;;;5094859;28;20212;-72
2021/04/12 09:55:53;;;;;;;10.15;6.00;;;7.50;99.90;;;;;;5114882;28;20223;-72
2021/04/12 09:58:56;;;;;;;6.85;5.45;;;7.20;99.90;;;;;;5112106;28;20196;-72
2021/04/12 10:01:42;;;;;;;11.32;6.60;;;7.20;99.90;;;;;;5116066;28;20221;-72
2021/04/12 10:04:50;;;;;;;7.80;5.78;;;6.90;99.90;;;;;;5116142;28;20200;-72
2021/04/12 10:07:49;;;;;;;9.07;6.03;;;6.80;99.90;;;;;;5115125;28;20691;-72
2021/04/12 10:10:19;;;;;;;10.40;6.20;;;7.00;99.90;;;;;;5114675;28;20236;-72
2021/04/12 10:12:53;;;;;;;9.50;5.53;;;7.30;99.90;;;;;;5115086;28;20196;-72
2021/04/12 10:15:33;;;;;;;8.98;6.15;;;7.50;99.90;;;;;;5114623;28;20296;-71
2021/04/12 10:18:13;;;;;;;5.85;3.67;;;7.60;99.90;;;;;;5114873;28;20629;-72
2021/04/12 10:20:45;;;;;;;9.02;5.53;;;7.40;99.70;;;;;;5115331;28;20220;-71
2021/04/12 10:23:18;;;;;;;8.57;5.30;;;7.20;99.90;;;;;;5115545;28;20285;-72
2021/04/12 10:25:53;;;;;;;5.63;4.00;;;7.30;99.90;;;;;;5115327;28;20292;-72
2021/04/12 10:28:24;;;;;;;8.15;5.10;;;7.40;99.90;;;;;;5114464;28;20307;-72
2021/04/12 10:30:56;;;;;;;6.90;4.82;;;7.40;99.90;;;;;;5114768;28;20221;-72
2021/04/12 10:33:41;;;;;;;6.20;3.78;;;7.30;99.90;;;;;;5114548;28;20224;-72
2021/04/12 10:36:18;;;;;;;8.90;4.10;;;7.20;99.90;;;;;;5113714;28;20276;-71
2021/04/12 10:38:45;;;;;;;5.43;3.80;;;7.30;99.60;;;;;;5114346;28;20201;-72
2021/04/12 10:41:23;;;;;;;4.57;4.05;;;7.50;99.00;;;;;;5114022;28;20609;-72
2021/04/12 10:43:57;;;;;;;4.57;2.55;;;8.00;96.90;;;;;;5114325;28;20276;-72
2021/04/12 10:46:27;;;;;;;4.80;3.70;;;8.20;95.90;;;;;;5113783;28;20206;-72
2021/04/12 10:49:00;;;;;;;5.63;4.45;;;8.10;93.50;;;;;;5114350;28;20702;-72
2021/04/12 10:51:33;;;;;;;7.30;4.00;;;8.30;95.40;;;;;;5113787;28;20225;-72
2021/04/12 10:54:36;;;;;;;4.75;4.00;;;8.20;94.50;;;;;;5114215;28;20557;-72
2021/04/12 10:57:12;;;;;;;4.72;4.18;;;8.40;95.10;;;;;;5091307;28;20284;-72
2021/04/12 10:59:52;;;;;;;5.55;4.35;;;8.80;95.30;;;;;;5118510;28;20193;-72
2021/04/12 11:02:22;;;;;;;4.57;3.90;;;9.00;94.70;;;;;;5118680;28;20547;-72
2021/04/12 11:05:02;;;;;;;4.45;4.00;;;9.00;91.80;;;;;;5118347;28;20205;-72
2021/04/12 11:07:51;;;;;;;4.90;4.20;;;9.00;91.80;;;;;;5118168;28;20292;-72
2021/04/12 11:10:31;;;;;;;5.50;4.38;;;8.50;90.70;;;;;;5118155;28;20308;-72
2021/04/12 11:13:02;;;;;;;4.72;3.88;;;8.30;92.10;;;;;;5117877;27;20217;-72
2021/04/12 11:15:55;;;;;;;5.18;3.88;;;8.20;90.70;;;;;;5117931;28;20206;-71
2021/04/12 11:18:29;;;;;;;5.40;3.15;;;7.80;93.70;;;;;;5118017;28;20220;-72
2021/04/12 11:21:03;;;;;;;4.25;3.53;;;7.80;88.70;;;;;;5117956;28;20298;-72
2021/04/12 11:23:33;;;;;;;3.20;2.85;;;7.90;86.80;;;;;;5117873;28;20338;-72
2021/04/12 11:26:05;;;;;;;4.15;3.70;;;7.90;87.90;;;;;;5117421;28;20300;-71
2021/04/12 11:28:43;;;;;;;4.97;3.30;;;8.10;91.10;;;;;;5117490;28;20684;-72
2021/04/12 11:31:31;;;;;;;5.38;3.30;;;8.70;90.20;;;;;;5117847;28;20225;-72
2021/04/12 11:34:08;;;;;;;4.90;3.55;;;8.40;87.90;;;;;;5117778;28;20205;-72
2021/04/12 11:36:53;;;;;;;5.55;3.80;;;8.20;90.90;;;;;;5117490;28;20284;-72
2021/04/12 11:39:24;;;;;;;3.80;3.50;;;8.20;90.60;;;;;;5115256;28;20230;-72
2021/04/12 11:41:56;;;;;;;5.10;4.13;;;7.90;87.50;;;;;;5117704;27;20221;-72
2021/04/12 11:44:29;;;;;;;3.60;3.22;;;7.70;89.70;;;;;;5117519;28;20201;-72
2021/04/12 11:47:14;;;;;;;5.57;3.67;;;7.60;90.50;;;;;;5117032;28;20277;-71
2021/04/12 11:49:46;;;;;;;6.15;3.20;;;7.80;90.10;;;;;;5117298;28;20316;-71
2021/04/12 11:52:18;;;;;;;3.67;3.33;;;8.00;87.10;;;;;;5117636;28;20192;-72
2021/04/12 11:54:55;;;;;;;3.45;2.90;;;8.40;88.40;;;;;;5117310;28;20209;-72
2021/04/12 11:57:43;;;;;;;3.40;3.10;;;8.80;86.60;;;;;;5117221;28;20272;-72
2021/04/12 12:00:14;;;;;;;3.28;3.03;;;9.10;80.90;;;;;;5117229;28;20236;-72
2021/04/12 12:02:54;;;;;;;3.88;2.90;;;8.90;79.20;;;;;;5116886;28;20701;-72
2021/04/12 12:05:28;;;;;;;5.45;3.70;;;9.00;82.10;;;;;;5116938;28;20215;-72
2021/04/12 12:07:58;;;;;;;3.20;2.90;;;9.20;78.30;;;;;;5116325;28;20201;-72
2021/04/12 12:10:43;;;;;;;3.65;3.15;;;8.80;75.40;;;;;;5117152;28;20228;-72
2021/04/12 12:13:33;;;;;;;3.28;2.80;;;8.40;81.70;;;;;;5116945;28;20332;-72
2021/04/12 12:16:19;;;;;;;3.90;2.95;;;8.50;82.40;;;;;;5116616;28;20229;-71
2021/04/12 12:18:51;;;;;;;6.80;3.08;;;8.80;79.80;;;;;;5116751;28;20716;-72
2021/04/12 12:21:20;;;;;;;3.72;3.25;;;8.90;81.60;;;;;;5116846;28;20231;-72
2021/04/12 12:24:02;;;;;;;7.53;3.40;;;9.00;79.50;;;;;;5116669;28;20293;-72
2021/04/12 12:26:37;;;;;;;3.72;2.72;;;9.00;79.10;;;;;;5116401;28;20193;-71
2021/04/12 12:29:16;;;;;;;2.67;2.40;;;9.10;75.40;;;;;;5116548;28;20265;-72
2021/04/12 12:32:09;;;;;;;3.78;2.35;;;9.10;76.50;;;;;;5116352;28;20708;-72
2021/04/12 12:34:47;;;;;;;2.38;2.20;;;8.90;76.90;;;;;;5117231;28;20666;-72
2021/04/12 12:37:27;;;;;;;2.50;2.30;;;8.60;78.00;;;;;;5117029;28;20353;-71
2021/04/12 12:39:56;;;;;;;3.88;2.70;;;8.40;77.10;;;;;;5116477;28;20206;-72
2021/04/12 12:42:27;;;;;;;2.20;2.00;;;8.40;77.60;;;;;;5116358;28;20564;-72
2021/04/12 12:44:55;;;;;;;4.32;3.38;;;8.40;72.90;;;;;;5116275;28;20206;-72
2021/04/12 12:47:25;;;;;;;2.70;2.50;;;8.60;71.10;;;;;;5115843;28;20203;-72
2021/04/12 12:49:56;;;;;;;3.13;2.80;;;8.90;72.00;;;;;;5116614;27;20266;-72
2021/04/12 12:52:27;;;;;;;2.85;2.50;;;9.40;73.50;;;;;;5117049;28;20534;-72
2021/04/12 12:54:55;;;;;;;3.85;2.50;;;9.60;69.70;;;;;;5115849;28;20296;-72
2021/04/12 12:57:31;;;;;;;3.33;2.63;;;9.50;68.90;;;;;;5115821;28;20201;-72
2021/04/12 13:00:08;;;;;;;3.53;3.20;;;9.70;69.90;;;;;;5116386;28;20293;-72
2021/04/12 13:02:39;;;;;;;3.13;2.70;;;9.70;71.20;;;;;;5116239;28;20185;-72
2021/04/12 13:05:09;;;;;;;3.38;2.50;;;9.70;71.30;;;;;;5115922;28;20201;-72
2021/04/12 13:07:37;;;;;;;4.10;2.60;;;9.60;73.20;;;;;;5115588;28;20205;-72
2021/04/12 13:10:08;;;;;;;3.17;2.80;;;9.50;69.60;;;;;;5115564;27;20361;-72
2021/04/12 13:12:38;;;;;;;4.35;3.10;;;9.40;68.50;;;;;;5115621;28;20201;-72
2021/04/12 13:15:20;;;;;;;7.32;3.33;;;9.40;69.30;;;;;;5115660;27;20292;-72
2021/04/12 13:17:47;;;;;;;3.35;3.05;;;9.10;71.70;;;;;;5115752;28;20617;-72
2021/04/12 13:20:22;;;;;;;4.30;3.75;;;9.00;73.50;;;;;;5114515;28;20313;-72
2021/04/12 13:23:01;;;;;;;4.32;3.38;;;9.00;73.20;;;;;;5115566;28;20189;-72
2021/04/12 13:25:33;;;;;;;3.17;2.88;;;9.10;73.20;;;;;;5115498;28;20207;-72
2021/04/12 13:28:05;;;;;;;2.05;1.92;;;9.10;72.80;;;;;;5115539;27;20239;-72
2021/04/12 13:30:35;;;;;;;2.75;2.55;;;9.30;69.70;;;;;;5115400;28;20231;-72
2021/04/12 13:33:06;;;;;;;3.10;2.80;;;9.60;69.00;;;;;;5116144;28;20208;-72
2021/04/12 13:35:35;;;;;;;2.70;2.50;;;10.00;65.10;;;;;;5115570;28;20660;-72
2021/04/12 13:38:10;;;;;;;4.20;3.03;;;10.00;65.70;;;;;;5115271;28;20198;-72
2021/04/12 13:40:43;;;;;;;2.95;2.63;;;9.30;64.90;;;;;;5114883;28;20228;-72
2021/04/12 13:43:11;;;;;;;3.00;2.70;;;9.10;70.60;;;;;;5115407;28;20242;-72
2021/04/12 13:45:41;;;;;;;2.78;2.58;;;9.00;67.40;;;;;;5114914;28;20202;-72
2021/04/12 13:48:10;;;;;;;2.53;2.28;;;9.20;71.60;;;;;;5114724;28;20679;-72
2021/04/12 13:50:48;;;;;;;3.92;2.70;;;9.50;68.70;;;;;;5114901;28;20217;-72
2021/04/12 13:53:17;;;;;;;3.13;2.40;;;9.70;66.40;;;;;;5114996;28;20241;-72
2021/04/12 13:55:50;;;;;;;3.42;2.65;;;9.90;67.70;;;;;;5115599;28;20213;-72
2021/04/12 13:58:28;;;;;;;4.03;2.90;;;9.90;66.40;;;;;;5114797;28;20763;-72
2021/04/12 14:01:02;;;;;;;3.63;3.20;;;9.80;68.60;;;;;;5115259;28;20231;-72
2021/04/12 14:03:30;;;;;;;3.25;2.95;;;9.40;64.70;;;;;;5114737;28;20560;-72
2021/04/12 14:06:03;;;;;;;4.93;3.35;;;9.30;65.20;;;;;;5114373;28;20250;-72
2021/04/12 14:08:34;;;;;;;3.30;2.97;;;9.20;66.70;;;;;;5114411;28;20797;-72
2021/04/12 14:11:03;;;;;;;3.70;3.40;;;9.00;66.80;;;;;;5114695;28;20341;-72
2021/04/12 14:13:33;;;;;;;4.47;2.70;;;9.00;70.00;;;;;;5114412;28;20214;-72
2021/04/12 14:16:05;;;;;;;7.45;3.10;;;8.90;68.60;;;;;;5114367;28;20202;-71
2021/04/12 14:18:42;;;;;;;3.25;2.90;;;9.00;67.40;;;;;;5114699;28;20308;-72
2021/04/12 14:21:14;;;;;;;3.22;2.75;;;9.00;69.50;;;;;;5114226;28;20221;-72
2021/04/12 14:23:49;;;;;;;3.95;3.20;;;8.70;68.50;;;;;;5114234;28;20288;-72
2021/04/12 14:26:23;;;;;;;3.10;2.80;;;8.60;70.30;;;;;;5114297;28;20291;-71
2021/04/12 14:28:54;;;;;;;4.30;3.13;;;8.30;71.40;;;;;;5115537;28;20316;-72
2021/04/12 14:31:27;;;;;;;3.17;2.80;;;7.90;71.00;;;;;;5115132;28;20227;-72
2021/04/12 14:34:01;;;;;;;2.90;2.58;;;7.90;77.40;;;;;;5114972;28;20205;-72
2021/04/12 14:36:31;;;;;;;3.03;2.67;;;8.20;77.00;;;;;;5113886;28;20295;-71